createdAt,value
2023-01-22T00:03:25.912Z,7.10
2023-01-22T00:08:30.334Z,7.10
2023-01-22T00:13:33.330Z,5.70
2023-01-22T00:18:36.257Z,7.07
2023-01-22T00:23:40.583Z,6.23
2023-01-22T00:28:45.129Z,6.90
2023-01-22T00:33:48.603Z,6.33
2023-01-22T00:38:53.195Z,6.33
2023-01-22T00:43:56.114Z,6.60
2023-01-22T00:48:59.056Z,6.00
2023-01-22T00:54:03.288Z,5.47
2023-01-22T00:59:10.353Z,5.40
2023-01-22T01:04:14.490Z,5.67
2023-01-22T01:09:18.907Z,6.20
2023-01-22T01:14:21.802Z,6.77
2023-01-22T01:19:24.644Z,5.97
2023-01-22T01:24:29.309Z,5.37
2023-01-22T01:29:32.211Z,6.13
2023-01-22T01:34:35.106Z,5.73
2023-01-22T01:39:40.851Z,5.13
2023-01-22T01:44:44.051Z,6.03
2023-01-22T01:49:50.648Z,4.70
2023-01-22T01:54:58.920Z,6.30
2023-01-22T02:00:04.367Z,5.90
2023-01-22T02:05:20.479Z,4.77
2023-01-22T02:10:27.563Z,5.43
2023-01-22T02:15:32.084Z,6.50
2023-01-22T02:20:37.604Z,5.63
2023-01-22T02:25:43.678Z,5.57
2023-01-22T02:30:48.604Z,5.47
2023-01-22T02:35:53.557Z,5.87
2023-01-22T02:40:56.551Z,5.97
2023-01-22T02:45:59.694Z,5.13
2023-01-22T02:51:04.401Z,5.47
2023-01-22T02:56:07.918Z,4.83
2023-01-22T03:01:18.919Z,5.43
2023-01-22T03:06:25.626Z,5.23
2023-01-22T03:11:30.358Z,4.83
2023-01-22T03:16:58.200Z,4.73
2023-01-22T03:22:02.829Z,5.00
2023-01-22T03:27:06.403Z,4.13
2023-01-22T03:32:09.672Z,4.00
2023-01-22T03:37:14.736Z,5.67
2023-01-22T03:42:20.475Z,4.20
2023-01-22T03:47:23.372Z,4.47
2023-01-22T03:52:27.625Z,3.93
2023-01-22T03:57:31.689Z,3.90
2023-01-22T04:02:34.970Z,4.50
2023-01-22T04:07:50.094Z,4.63
2023-01-22T04:12:54.581Z,3.80
2023-01-22T04:17:59.256Z,4.83
2023-01-22T04:23:26.687Z,4.20
2023-01-22T04:28:29.610Z,3.90
2023-01-22T04:33:34.312Z,4.80
2023-01-22T04:38:43.391Z,4.03
2023-01-22T04:43:49.307Z,3.60
2023-01-22T04:48:52.707Z,4.30
2023-01-22T04:53:57.002Z,3.53
2023-01-22T04:59:00.425Z,3.73
2023-01-22T05:04:03.328Z,3.10
2023-01-22T05:09:10.743Z,4.97
2023-01-22T05:14:26.802Z,4.97
2023-01-22T05:19:29.985Z,3.80
2023-01-22T05:24:34.988Z,4.97
2023-01-22T05:30:01.827Z,3.80
2023-01-22T05:35:23.415Z,3.53
2023-01-22T05:40:27.935Z,3.73
2023-01-22T05:45:30.923Z,4.53
2023-01-22T05:51:09.505Z,4.83
2023-01-22T05:56:13.954Z,3.70
2023-01-22T06:01:16.935Z,4.00
2023-01-22T06:06:24.595Z,4.17
2023-01-22T06:11:28.929Z,4.53
2023-01-22T06:16:31.940Z,3.87
2023-01-22T06:21:34.777Z,4.10
2023-01-22T06:26:39.614Z,3.77
2023-01-22T06:31:45.225Z,4.10
2023-01-22T06:36:52.822Z,3.00
2023-01-22T06:41:57.616Z,3.53
2023-01-22T06:47:00.698Z,2.47
2023-01-22T06:52:07.113Z,2.73
2023-01-22T06:57:11.371Z,2.83
2023-01-22T07:02:20.600Z,2.30
2023-01-22T07:07:23.522Z,2.20
2023-01-22T07:12:29.456Z,2.77
2023-01-22T07:17:32.896Z,2.40
2023-01-22T07:22:35.667Z,2.70
2023-01-22T07:27:50.540Z,2.50
2023-01-22T07:32:53.392Z,3.27
2023-01-22T07:37:58.052Z,3.10
2023-01-22T07:43:06.286Z,2.70
2023-01-22T07:53:59.184Z,2.97
2023-01-22T07:59:05.984Z,3.13
2023-01-22T08:04:08.899Z,2.50
2023-01-22T08:09:15.641Z,2.87
2023-01-22T08:14:22.724Z,3.00
2023-01-22T08:19:25.834Z,2.47
2023-01-22T08:24:31.292Z,2.53
2023-01-22T08:29:38.272Z,2.43
2023-01-22T08:34:41.185Z,2.90
2023-01-22T08:39:44.226Z,2.37
2023-01-22T08:44:50.860Z,2.63
2023-01-22T08:49:53.995Z,2.90
2023-01-22T08:54:56.998Z,2.50
2023-01-22T09:00:01.706Z,3.37
2023-01-22T09:05:09.474Z,2.80
2023-01-22T09:10:15.014Z,2.97
2023-01-22T09:15:19.289Z,2.77
2023-01-22T09:20:22.482Z,1.87
2023-01-22T09:25:26.257Z,3.17
2023-01-22T09:30:33.361Z,1.93
2023-01-22T09:35:36.348Z,2.23
2023-01-22T09:40:44.586Z,2.00
2023-01-22T09:45:53.306Z,2.00
2023-01-22T09:50:56.174Z,2.60
2023-01-22T09:55:59.278Z,2.20
2023-01-22T10:01:05.717Z,2.50
2023-01-22T10:06:12.042Z,2.57
2023-01-22T10:11:15.001Z,2.27
2023-01-22T10:16:19.281Z,2.30
2023-01-22T10:21:27.803Z,2.37
2023-01-22T10:26:40.734Z,2.30
2023-01-22T10:31:50.428Z,2.63
2023-01-22T10:36:56.420Z,2.00
2023-01-22T10:42:02.930Z,1.93
2023-01-22T10:47:18.339Z,2.10
2023-01-22T10:52:24.237Z,2.33
2023-01-22T10:57:31.523Z,2.13
2023-01-22T11:02:36.788Z,1.87
2023-01-22T11:07:40.367Z,2.00
2023-01-22T11:12:47.681Z,1.43
2023-01-22T11:17:53.778Z,2.10
2023-01-22T11:28:48.873Z,1.87
2023-01-22T11:34:22.366Z,1.87
2023-01-22T11:39:38.457Z,1.90
2023-01-22T11:44:52.933Z,2.20
2023-01-22T11:50:09.478Z,1.90
2023-01-22T11:55:26.023Z,2.17
2023-01-22T12:00:40.480Z,2.40
2023-01-22T12:05:47.879Z,2.20
2023-01-22T12:11:12.451Z,2.00
2023-01-22T12:16:21.524Z,1.70
2023-01-22T12:21:34.337Z,2.87
2023-01-22T12:26:44.221Z,2.07
2023-01-22T12:31:50.490Z,3.13
2023-01-22T12:36:57.068Z,2.30
2023-01-22T12:42:10.061Z,2.93
2023-01-22T12:47:17.509Z,2.90
2023-01-22T12:52:34.083Z,1.73
2023-01-22T12:57:42.290Z,2.10
2023-01-22T13:02:45.180Z,2.70
2023-01-22T13:07:50.148Z,1.97
2023-01-22T13:12:57.673Z,2.10
2023-01-22T13:18:07.840Z,2.57
2023-01-22T13:23:14.454Z,1.80
2023-01-22T13:28:18.682Z,2.53
2023-01-22T13:33:23.546Z,2.53
2023-01-22T13:38:29.261Z,2.60
2023-01-22T13:43:35.179Z,2.27
2023-01-22T13:48:38.484Z,2.60
2023-01-22T13:53:44.396Z,3.17
2023-01-22T13:58:49.080Z,2.70
2023-01-22T14:03:59.532Z,2.73
2023-01-22T14:09:03.957Z,4.03
2023-01-22T14:14:18.949Z,2.90
2023-01-22T14:19:21.753Z,2.60
2023-01-22T14:24:30.443Z,2.90
2023-01-22T14:29:33.365Z,3.17
2023-01-22T14:34:36.308Z,3.07
2023-01-22T14:39:40.859Z,3.37
2023-01-22T14:44:43.673Z,2.87
2023-01-22T14:49:49.060Z,3.27
2023-01-22T14:54:57.011Z,2.53
2023-01-22T14:59:59.985Z,3.80
2023-01-22T15:05:02.860Z,3.70
2023-01-22T15:10:09.658Z,3.30
2023-01-22T15:15:12.923Z,3.03
2023-01-22T15:20:16.503Z,3.00
2023-01-22T15:25:21.149Z,3.03
2023-01-22T15:30:24.133Z,3.50
2023-01-22T15:35:27.255Z,2.60
2023-01-22T15:40:31.599Z,2.90
2023-01-22T15:45:34.628Z,3.23
2023-01-22T15:50:37.506Z,3.97
2023-01-22T15:55:43.813Z,3.10
2023-01-22T16:00:49.682Z,2.97
2023-01-22T16:05:52.573Z,3.23
2023-01-22T16:10:56.903Z,2.90
2023-01-22T16:16:01.336Z,3.80
2023-01-22T16:21:27.408Z,2.93
2023-01-22T16:26:36.202Z,2.97
2023-01-22T16:31:39.244Z,4.77
2023-01-22T16:36:43.055Z,3.37
2023-01-22T16:41:49.909Z,3.17
2023-01-22T16:46:54.288Z,4.17
2023-01-22T16:51:59.338Z,4.27
2023-01-22T16:57:06.059Z,3.93
2023-01-22T17:02:14.111Z,4.07
2023-01-22T17:07:32.230Z,3.37
2023-01-22T17:12:37.700Z,3.87
2023-01-22T17:17:40.591Z,3.87
2023-01-22T17:22:46.511Z,4.80
2023-01-22T17:27:50.738Z,4.23
2023-01-22T17:32:53.739Z,4.40
2023-01-22T17:37:56.592Z,3.57
2023-01-22T17:43:00.742Z,3.43
2023-01-22T17:48:03.614Z,3.73
2023-01-22T17:53:06.460Z,3.87
2023-01-22T17:58:10.616Z,3.07
2023-01-22T18:03:14.184Z,3.67
2023-01-22T18:08:17.121Z,3.77
2023-01-22T18:13:21.328Z,4.47
2023-01-22T18:18:24.189Z,4.03
2023-01-22T18:23:27.270Z,3.10
2023-01-22T18:28:31.686Z,3.97
2023-01-22T18:33:37.394Z,4.43
2023-01-22T18:38:40.365Z,4.33
2023-01-22T18:43:47.962Z,3.30
2023-01-22T18:48:54.594Z,3.83
2023-01-22T18:53:57.882Z,4.63
2023-01-22T18:59:02.345Z,4.43
2023-01-22T19:04:06.771Z,5.37
2023-01-22T19:09:12.402Z,3.43
2023-01-22T19:14:18.604Z,3.60
2023-01-22T19:19:25.191Z,4.83
2023-01-22T19:24:28.710Z,4.50
2023-01-22T19:29:32.955Z,3.93
2023-01-22T19:34:35.851Z,3.97
2023-01-22T19:39:40.860Z,3.73
2023-01-22T19:44:46.055Z,3.50
2023-01-22T19:49:48.880Z,4.43
2023-01-22T19:54:51.671Z,3.73
2023-01-22T19:59:58.263Z,4.60
2023-01-22T20:05:01.246Z,4.73
2023-01-22T20:10:04.566Z,4.37
2023-01-22T20:15:10.267Z,4.23
2023-01-22T20:20:13.612Z,4.30
2023-01-22T20:25:21.889Z,4.27
2023-01-22T20:30:26.719Z,3.83
2023-01-22T20:35:29.718Z,4.07
2023-01-22T20:40:34.679Z,4.50
2023-01-22T20:45:38.999Z,3.03
2023-01-22T20:50:42.413Z,3.73
2023-01-22T20:55:45.289Z,3.63
2023-01-22T21:00:49.539Z,3.93
2023-01-22T21:05:52.564Z,4.00
2023-01-22T21:10:59.055Z,3.40
2023-01-22T21:16:09.262Z,2.90
2023-01-22T21:21:13.983Z,3.93
2023-01-22T21:26:19.230Z,4.20
2023-01-22T21:31:24.939Z,3.93
2023-01-22T21:36:28.025Z,4.63
2023-01-22T21:41:31.067Z,3.67
2023-01-22T21:46:39.598Z,5.07
2023-01-22T21:51:42.984Z,3.90
2023-01-22T21:56:45.908Z,5.23
2023-01-22T22:01:53.308Z,4.13
2023-01-22T22:06:56.281Z,3.50
2023-01-22T22:12:00.672Z,4.37
2023-01-22T22:17:04.926Z,5.20
2023-01-22T22:22:07.723Z,4.70
2023-01-22T22:27:10.518Z,3.77
2023-01-22T22:32:14.724Z,3.70
2023-01-22T22:37:18.048Z,4.03
2023-01-22T22:42:20.902Z,3.37
2023-01-22T22:47:47.080Z,3.87
2023-01-22T22:52:49.871Z,3.83
2023-01-22T22:57:52.756Z,3.93
2023-01-22T23:02:57.086Z,3.60
2023-01-22T23:07:59.891Z,2.97
2023-01-22T23:13:03.655Z,4.70
2023-01-22T23:18:08.091Z,3.47
2023-01-22T23:23:10.976Z,3.87
2023-01-22T23:28:13.798Z,3.03
2023-01-22T23:33:18.159Z,3.40
2023-01-22T23:38:21.939Z,3.43
2023-01-22T23:43:24.812Z,4.17
2023-01-22T23:48:29.192Z,3.90
2023-01-22T23:53:32.148Z,3.60
2023-01-22T23:58:35.888Z,3.77
